sensor_id;sensor_type;location;lat;lon;timestamp;pressure;altitude;pressure_sealevel;temperature;humidity
64200;BME280;50516;52.272;5.136;2024-01-30T00:01:52;102550.34;;;8.77;100.00
64200;BME280;50516;52.272;5.136;2024-01-30T00:04:17;102547.06;;;8.93;100.00
64200;BME280;50516;52.272;5.136;2024-01-30T00:06:43;102554.22;;;9.01;100.00
64200;BME280;50516;52.272;5.136;2024-01-30T00:09:09;102551.03;;;8.98;100.00
64200;BME280;50516;52.272;5.136;2024-01-30T00:11:36;102546.50;;;8.78;100.00
64200;BME280;50516;52.272;5.136;2024-01-30T00:14:01;102558.25;;;8.92;100.00
64200;BME280;50516;52.272;5.136;2024-01-30T00:16:28;102552.91;;;9.04;100.00
64200;BME280;50516;52.272;5.136;2024-01-30T00:18:54;102555.47;;;8.99;100.00
64200;BME280;50516;52.272;5.136;2024-01-30T00:21:20;102542.16;;;9.02;100.00
64200;BME280;50516;52.272;5.136;2024-01-30T00:23:45;102539.81;;;9.06;100.00
64200;BME280;50516;52.272;5.136;2024-01-30T00:26:11;102539.81;;;9.06;100.00
64200;BME280;50516;52.272;5.136;2024-01-30T00:28:37;102549.41;;;8.90;100.00
64200;BME280;50516;52.272;5.136;2024-01-30T00:31:03;102548.53;;;8.96;100.00
64200;BME280;50516;52.272;5.136;2024-01-30T00:33:28;102550.53;;;9.14;100.00
64200;BME280;50516;52.272;5.136;2024-01-30T00:35:53;102548.25;;;9.11;100.00
64200;BME280;50516;52.272;5.136;2024-01-30T00:38:19;102530.38;;;9.02;100.00
64200;BME280;50516;52.272;5.136;2024-01-30T00:40:44;102530.19;;;8.97;100.00
64200;BME280;50516;52.272;5.136;2024-01-30T00:43:09;102533.50;;;9.05;100.00
64200;BME280;50516;52.272;5.136;2024-01-30T00:45:35;102534.53;;;9.11;100.00
64200;BME280;50516;52.272;5.136;2024-01-30T00:48:00;102537.56;;;8.96;100.00
64200;BME280;50516;52.272;5.136;2024-01-30T00:50:25;102539.44;;;9.02;100.00
64200;BME280;50516;52.272;5.136;2024-01-30T00:52:51;102533.47;;;9.12;100.00
64200;BME280;50516;52.272;5.136;2024-01-30T00:55:16;102531.09;;;9.22;100.00
64200;BME280;50516;52.272;5.136;2024-01-30T00:57:41;102531.81;;;9.11;100.00
64200;BME280;50516;52.272;5.136;2024-01-30T01:00:07;102534.97;;;9.08;100.00
64200;BME280;50516;52.272;5.136;2024-01-30T01:02:34;102541.69;;;9.12;100.00
64200;BME280;50516;52.272;5.136;2024-01-30T01:05:00;102526.53;;;9.09;100.00
64200;BME280;50516;52.272;5.136;2024-01-30T01:07:25;102526.38;;;9.29;100.00
64200;BME280;50516;52.272;5.136;2024-01-30T01:09:50;102519.19;;;9.35;100.00
64200;BME280;50516;52.272;5.136;2024-01-30T01:12:16;102521.88;;;9.42;100.00
64200;BME280;50516;52.272;5.136;2024-01-30T01:14:41;102519.94;;;9.17;100.00
64200;BME280;50516;52.272;5.136;2024-01-30T01:17:07;102517.09;;;9.30;100.00
64200;BME280;50516;52.272;5.136;2024-01-30T01:19:32;102518.50;;;9.40;100.00
64200;BME280;50516;52.272;5.136;2024-01-30T01:21:57;102525.34;;;9.30;100.00
64200;BME280;50516;52.272;5.136;2024-01-30T01:24:23;102526.34;;;9.36;100.00
64200;BME280;50516;52.272;5.136;2024-01-30T01:26:48;102523.88;;;9.28;100.00
64200;BME280;50516;52.272;5.136;2024-01-30T01:29:13;102521.06;;;9.35;100.00
64200;BME280;50516;52.272;5.136;2024-01-30T01:31:40;102527.41;;;9.35;100.00
64200;BME280;50516;52.272;5.136;2024-01-30T01:34:12;102530.38;;;9.34;100.00
64200;BME280;50516;52.272;5.136;2024-01-30T01:36:38;102527.84;;;9.32;100.00
64200;BME280;50516;52.272;5.136;2024-01-30T01:39:03;102530.44;;;9.20;100.00
64200;BME280;50516;52.272;5.136;2024-01-30T01:41:32;102521.72;;;9.30;100.00
64200;BME280;50516;52.272;5.136;2024-01-30T01:43:59;102525.13;;;9.32;100.00
64200;BME280;50516;52.272;5.136;2024-01-30T01:46:26;102512.25;;;9.32;100.00
64200;BME280;50516;52.272;5.136;2024-01-30T01:48:52;102522.22;;;9.27;100.00
64200;BME280;50516;52.272;5.136;2024-01-30T01:51:18;102526.66;;;9.21;100.00
64200;BME280;50516;52.272;5.136;2024-01-30T01:53:44;102524.69;;;9.28;100.00
64200;BME280;50516;52.272;5.136;2024-01-30T01:56:10;102522.75;;;9.36;100.00
64200;BME280;50516;52.272;5.136;2024-01-30T01:58:36;102514.75;;;9.34;100.00
64200;BME280;50516;52.272;5.136;2024-01-30T02:01:03;102518.69;;;9.45;100.00
64200;BME280;50516;52.272;5.136;2024-01-30T02:03:30;102517.88;;;9.38;100.00
64200;BME280;50516;52.272;5.136;2024-01-30T02:05:56;102521.50;;;9.31;100.00
64200;BME280;50516;52.272;5.136;2024-01-30T02:08:22;102520.28;;;9.27;100.00
64200;BME280;50516;52.272;5.136;2024-01-30T02:10:47;102520.00;;;9.36;100.00
64200;BME280;50516;52.272;5.136;2024-01-30T02:13:13;102512.84;;;9.35;100.00
64200;BME280;50516;52.272;5.136;2024-01-30T02:15:38;102501.88;;;9.35;100.00
64200;BME280;50516;52.272;5.136;2024-01-30T02:18:03;102490.41;;;9.44;100.00
64200;BME280;50516;52.272;5.136;2024-01-30T02:20:29;102486.22;;;9.42;100.00
64200;BME280;50516;52.272;5.136;2024-01-30T02:22:58;102519.06;;;9.48;100.00
64200;BME280;50516;52.272;5.136;2024-01-30T02:25:33;102502.47;;;9.43;100.00
64200;BME280;50516;52.272;5.136;2024-01-30T02:27:59;102490.41;;;9.44;100.00
64200;BME280;50516;52.272;5.136;2024-01-30T02:30:24;102495.13;;;9.37;100.00
64200;BME280;50516;52.272;5.136;2024-01-30T02:32:49;102518.06;;;9.18;100.00
64200;BME280;50516;52.272;5.136;2024-01-30T02:35:14;102504.34;;;9.18;100.00
64200;BME280;50516;52.272;5.136;2024-01-30T02:37:40;102506.97;;;9.31;100.00
64200;BME280;50516;52.272;5.136;2024-01-30T02:40:06;102488.84;;;9.30;100.00
64200;BME280;50516;52.272;5.136;2024-01-30T02:42:31;102476.31;;;9.41;100.00
64200;BME280;50516;52.272;5.136;2024-01-30T02:44:56;102477.03;;;9.29;100.00
64200;BME280;50516;52.272;5.136;2024-01-30T02:47:22;102484.59;;;9.34;100.00
64200;BME280;50516;52.272;5.136;2024-01-30T02:49:47;102467.13;;;9.28;100.00
64200;BME280;50516;52.272;5.136;2024-01-30T02:52:12;102473.84;;;9.07;100.00
64200;BME280;50516;52.272;5.136;2024-01-30T02:54:38;102469.38;;;9.13;100.00
64200;BME280;50516;52.272;5.136;2024-01-30T02:57:03;102478.34;;;9.27;100.00
64200;BME280;50516;52.272;5.136;2024-01-30T02:59:28;102468.88;;;9.23;100.00
64200;BME280;50516;52.272;5.136;2024-01-30T03:01:54;102461.09;;;9.20;100.00
64200;BME280;50516;52.272;5.136;2024-01-30T03:04:19;102469.38;;;9.13;100.00
64200;BME280;50516;52.272;5.136;2024-01-30T03:06:45;102471.09;;;9.07;100.00
64200;BME280;50516;52.272;5.136;2024-01-30T03:09:12;102472.25;;;8.93;100.00
64200;BME280;50516;52.272;5.136;2024-01-30T03:11:37;102470.97;;;8.95;100.00
64200;BME280;50516;52.272;5.136;2024-01-30T03:14:03;102472.63;;;9.03;100.00
64200;BME280;50516;52.272;5.136;2024-01-30T03:16:29;102470.31;;;9.00;100.00
64200;BME280;50516;52.272;5.136;2024-01-30T03:18:54;102465.28;;;8.97;100.00
64200;BME280;50516;52.272;5.136;2024-01-30T03:21:19;102463.09;;;9.06;100.00
64200;BME280;50516;52.272;5.136;2024-01-30T03:23:45;102447.75;;;9.05;100.00
64200;BME280;50516;52.272;5.136;2024-01-30T03:26:10;102440.41;;;8.99;100.00
64200;BME280;50516;52.272;5.136;2024-01-30T03:28:37;102454.16;;;8.92;100.00
64200;BME280;50516;52.272;5.136;2024-01-30T03:31:03;102431.44;;;8.85;100.00
64200;BME280;50516;52.272;5.136;2024-01-30T03:33:28;102427.19;;;8.89;100.00
64200;BME280;50516;52.272;5.136;2024-01-30T03:35:53;102414.97;;;8.91;100.00
64200;BME280;50516;52.272;5.136;2024-01-30T03:38:19;102427.59;;;8.92;100.00
64200;BME280;50516;52.272;5.136;2024-01-30T03:40:44;102423.81;;;8.93;100.00
64200;BME280;50516;52.272;5.136;2024-01-30T03:43:09;102425.88;;;8.98;100.00
64200;BME280;50516;52.272;5.136;2024-01-30T03:45:34;102428.41;;;8.93;100.00
64200;BME280;50516;52.272;5.136;2024-01-30T03:48:00;102423.97;;;8.99;100.00
64200;BME280;50516;52.272;5.136;2024-01-30T03:50:25;102428.41;;;8.93;100.00
64200;BME280;50516;52.272;5.136;2024-01-30T03:52:50;102435.91;;;9.04;100.00
64200;BME280;50516;52.272;5.136;2024-01-30T03:55:15;102441.94;;;8.88;100.00
64200;BME280;50516;52.272;5.136;2024-01-30T03:57:41;102444.03;;;8.92;100.00
64200;BME280;50516;52.272;5.136;2024-01-30T04:00:07;102438.44;;;9.06;100.00
64200;BME280;50516;52.272;5.136;2024-01-30T04:02:33;102431.31;;;9.05;100.00
64200;BME280;50516;52.272;5.136;2024-01-30T04:04:58;102437.34;;;8.88;100.00
64200;BME280;50516;52.272;5.136;2024-01-30T04:07:24;102438.38;;;8.87;100.00
64200;BME280;50516;52.272;5.136;2024-01-30T04:09:49;102431.44;;;8.85;100.00
64200;BME280;50516;52.272;5.136;2024-01-30T04:12:14;102440.72;;;8.84;100.00
64200;BME280;50516;52.272;5.136;2024-01-30T04:14:40;102441.94;;;8.88;100.00
64200;BME280;50516;52.272;5.136;2024-01-30T04:17:05;102436.41;;;8.94;100.00
64200;BME280;50516;52.272;5.136;2024-01-30T04:19:30;102428.41;;;9.00;100.00
64200;BME280;50516;52.272;5.136;2024-01-30T04:21:55;102428.41;;;8.93;100.00
64200;BME280;50516;52.272;5.136;2024-01-30T04:24:21;102423.63;;;8.88;100.00
64200;BME280;50516;52.272;5.136;2024-01-30T04:26:46;102435.59;;;8.94;100.00
64200;BME280;50516;52.272;5.136;2024-01-30T04:29:11;102424.13;;;9.04;100.00
64200;BME280;50516;52.272;5.136;2024-01-30T04:31:37;102422.91;;;9.00;100.00
64200;BME280;50516;52.272;5.136;2024-01-30T04:34:03;102423.47;;;9.08;100.00
64200;BME280;50516;52.272;5.136;2024-01-30T04:36:28;102416.25;;;9.14;100.00
64200;BME280;50516;52.272;5.136;2024-01-30T04:38:53;102419.56;;;9.23;100.00
64200;BME280;50516;52.272;5.136;2024-01-30T04:41:18;102418.16;;;9.13;100.00
64200;BME280;50516;52.272;5.136;2024-01-30T04:43:44;102413.84;;;9.24;100.00
64200;BME280;50516;52.272;5.136;2024-01-30T04:46:09;102404.56;;;9.25;100.00
64200;BME280;50516;52.272;5.136;2024-01-30T04:48:34;102407.97;;;9.21;100.00
64200;BME280;50516;52.272;5.136;2024-01-30T04:51:00;102409.69;;;9.15;100.00
64200;BME280;50516;52.272;5.136;2024-01-30T04:53:30;102409.53;;;9.10;100.00
64200;BME280;50516;52.272;5.136;2024-01-30T04:55:55;102409.31;;;9.11;100.00
64200;BME280;50516;52.272;5.136;2024-01-30T04:58:20;102406.81;;;9.10;100.00
64200;BME280;50516;52.272;5.136;2024-01-30T05:00:45;102399.56;;;9.16;100.00
64200;BME280;50516;52.272;5.136;2024-01-30T05:03:13;102401.75;;;9.07;100.00
64200;BME280;50516;52.272;5.136;2024-01-30T05:05:38;102404.72;;;9.05;100.00
64200;BME280;50516;52.272;5.136;2024-01-30T05:08:04;102400.44;;;9.16;100.00
64200;BME280;50516;52.272;5.136;2024-01-30T05:10:29;102405.56;;;9.06;100.00
64200;BME280;50516;52.272;5.136;2024-01-30T05:12:55;102398.28;;;9.18;100.00
64200;BME280;50516;52.272;5.136;2024-01-30T05:15:20;102403.16;;;9.16;100.00
64200;BME280;50516;52.272;5.136;2024-01-30T05:17:45;102401.25;;;9.17;100.00
64200;BME280;50516;52.272;5.136;2024-01-30T05:20:11;102396.44;;;9.12;100.00
64200;BME280;50516;52.272;5.136;2024-01-30T05:22:36;102404.22;;;9.15;100.00
64200;BME280;50516;52.272;5.136;2024-01-30T05:25:02;102398.28;;;9.18;100.00
64200;BME280;50516;52.272;5.136;2024-01-30T05:27:27;102403.00;;;9.11;100.00
64200;BME280;50516;52.272;5.136;2024-01-30T05:29:52;102406.81;;;9.10;100.00
64200;BME280;50516;52.272;5.136;2024-01-30T05:32:18;102405.31;;;9.14;100.00
64200;BME280;50516;52.272;5.136;2024-01-30T05:34:43;102397.09;;;9.14;100.00
64200;BME280;50516;52.272;5.136;2024-01-30T05:37:08;102387.41;;;9.11;100.00
64200;BME280;50516;52.272;5.136;2024-01-30T05:39:34;102394.94;;;9.16;100.00
64200;BME280;50516;52.272;5.136;2024-01-30T05:42:00;102409.13;;;9.31;100.00
64200;BME280;50516;52.272;5.136;2024-01-30T05:44:26;102401.13;;;9.30;100.00
64200;BME280;50516;52.272;5.136;2024-01-30T05:46:51;102398.50;;;9.17;100.00
64200;BME280;50516;52.272;5.136;2024-01-30T05:49:16;102407.75;;;9.22;100.00
64200;BME280;50516;52.272;5.136;2024-01-30T05:51:41;102406.34;;;9.13;100.00
64200;BME280;50516;52.272;5.136;2024-01-30T05:54:06;102404.59;;;9.19;100.00
64200;BME280;50516;52.272;5.136;2024-01-30T05:56:32;102403.09;;;9.23;100.00
64200;BME280;50516;52.272;5.136;2024-01-30T05:58:57;102412.50;;;9.34;100.00
64200;BME280;50516;52.272;5.136;2024-01-30T06:01:22;102409.84;;;9.45;100.00
64200;BME280;50516;52.272;5.136;2024-01-30T06:03:48;102413.25;;;9.41;100.00
64200;BME280;50516;52.272;5.136;2024-01-30T06:06:13;102410.50;;;9.22;100.00
64200;BME280;50516;52.272;5.136;2024-01-30T06:08:38;102410.22;;;9.30;100.00
64200;BME280;50516;52.272;5.136;2024-01-30T06:11:03;102401.63;;;9.20;100.00
64200;BME280;50516;52.272;5.136;2024-01-30T06:13:29;102397.25;;;9.38;100.00
64200;BME280;50516;52.272;5.136;2024-01-30T06:15:56;102401.09;;;9.37;100.00
64200;BME280;50516;52.272;5.136;2024-01-30T06:18:22;102404.88;;;9.36;100.00
64200;BME280;50516;52.272;5.136;2024-01-30T06:20:47;102403.19;;;9.35;100.00
64200;BME280;50516;52.272;5.136;2024-01-30T06:23:12;102405.09;;;9.34;100.00
64200;BME280;50516;52.272;5.136;2024-01-30T06:25:39;102403.53;;;9.45;100.00
64200;BME280;50516;52.272;5.136;2024-01-30T06:28:05;102400.56;;;9.46;100.00
64200;BME280;50516;52.272;5.136;2024-01-30T06:30:30;102400.34;;;9.48;100.00
64200;BME280;50516;52.272;5.136;2024-01-30T06:32:55;102402.59;;;9.51;100.00
64200;BME280;50516;52.272;5.136;2024-01-30T06:35:20;102400.13;;;9.49;100.00
64200;BME280;50516;52.272;5.136;2024-01-30T06:37:46;102409.03;;;9.45;100.00
64200;BME280;50516;52.272;5.136;2024-01-30T06:40:12;102419.63;;;9.35;100.00
64200;BME280;50516;52.272;5.136;2024-01-30T06:42:37;102427.41;;;9.38;100.00
64200;BME280;50516;52.272;5.136;2024-01-30T06:45:03;102416.94;;;9.53;100.00
64200;BME280;50516;52.272;5.136;2024-01-30T06:47:29;102425.75;;;9.37;100.00
64200;BME280;50516;52.272;5.136;2024-01-30T06:49:56;102421.50;;;9.41;100.00
64200;BME280;50516;52.272;5.136;2024-01-30T06:52:21;102423.47;;;9.34;100.00
64200;BME280;50516;52.272;5.136;2024-01-30T06:54:46;102411.19;;;9.36;100.00
64200;BME280;50516;52.272;5.136;2024-01-30T06:57:11;102415.41;;;9.39;100.00
64200;BME280;50516;52.272;5.136;2024-01-30T06:59:39;102416.84;;;9.41;100.00
64200;BME280;50516;52.272;5.136;2024-01-30T07:02:09;102424.69;;;9.38;100.00
64200;BME280;50516;52.272;5.136;2024-01-30T07:04:36;102428.53;;;9.30;100.00
64200;BME280;50516;52.272;5.136;2024-01-30T07:07:02;102421.72;;;9.39;100.00
64200;BME280;50516;52.272;5.136;2024-01-30T07:09:28;102419.97;;;9.45;100.00
64200;BME280;50516;52.272;5.136;2024-01-30T07:11:54;102427.75;;;9.48;100.00
64200;BME280;50516;52.272;5.136;2024-01-30T07:14:20;102416.50;;;9.56;100.00
64200;BME280;50516;52.272;5.136;2024-01-30T07:16:45;102420.59;;;9.65;100.00
64200;BME280;50516;52.272;5.136;2024-01-30T07:19:11;102422.72;;;9.63;100.00
64200;BME280;50516;52.272;5.136;2024-01-30T07:21:36;102428.06;;;9.58;100.00
64200;BME280;50516;52.272;5.136;2024-01-30T07:24:02;102420.13;;;9.68;100.00
64200;BME280;50516;52.272;5.136;2024-01-30T07:26:27;102417.09;;;9.58;100.00
64200;BME280;50516;52.272;5.136;2024-01-30T07:28:52;102419.69;;;9.53;100.00
64200;BME280;50516;52.272;5.136;2024-01-30T07:31:18;102433.41;;;9.53;100.00
64200;BME280;50516;52.272;5.136;2024-01-30T07:33:46;102429.28;;;9.62;100.00
64200;BME280;50516;52.272;5.136;2024-01-30T07:36:11;102440.03;;;9.64;100.00
64200;BME280;50516;52.272;5.136;2024-01-30T07:38:36;102435.84;;;9.61;100.00
64200;BME280;50516;52.272;5.136;2024-01-30T07:41:01;102439.50;;;9.74;100.00
64200;BME280;50516;52.272;5.136;2024-01-30T07:43:27;102449.25;;;9.88;100.00
64200;BME280;50516;52.272;5.136;2024-01-30T07:45:52;102453.38;;;9.79;100.00
64200;BME280;50516;52.272;5.136;2024-01-30T07:48:17;102454.59;;;9.83;100.00
64200;BME280;50516;52.272;5.136;2024-01-30T07:50:43;102454.50;;;9.90;100.00
64200;BME280;50516;52.272;5.136;2024-01-30T07:53:08;102454.63;;;10.01;100.00
64200;BME280;50516;52.272;5.136;2024-01-30T07:55:33;102449.44;;;9.93;100.00
64200;BME280;50516;52.272;5.136;2024-01-30T07:57:58;102455.38;;;9.90;100.00
64200;BME280;50516;52.272;5.136;2024-01-30T08:00:24;102465.59;;;10.01;100.00
64200;BME280;50516;52.272;5.136;2024-01-30T08:02:51;102463.75;;;9.95;100.00
64200;BME280;50516;52.272;5.136;2024-01-30T08:05:19;102461.25;;;9.94;100.00
64200;BME280;50516;52.272;5.136;2024-01-30T08:07:44;102457.97;;;10.03;100.00
64200;BME280;50516;52.272;5.136;2024-01-30T08:10:11;102457.34;;;10.01;100.00
64200;BME280;50516;52.272;5.136;2024-01-30T08:12:37;102457.88;;;10.10;100.00
64200;BME280;50516;52.272;5.136;2024-01-30T08:15:02;102452.91;;;10.19;100.00
64200;BME280;50516;52.272;5.136;2024-01-30T08:17:28;102458.88;;;10.16;100.00
64200;BME280;50516;52.272;5.136;2024-01-30T08:19:53;102469.22;;;10.14;100.00
64200;BME280;50516;52.272;5.136;2024-01-30T08:22:18;102468.41;;;10.13;100.00
64200;BME280;50516;52.272;5.136;2024-01-30T08:24:44;102466.47;;;10.14;100.00
64200;BME280;50516;52.272;5.136;2024-01-30T08:27:09;102468.72;;;10.05;100.00
64200;BME280;50516;52.272;5.136;2024-01-30T08:29:35;102467.78;;;10.11;100.00
64200;BME280;50516;52.272;5.136;2024-01-30T08:32:01;102482.50;;;10.17;100.00
64200;BME280;50516;52.272;5.136;2024-01-30T08:34:26;102477.69;;;10.31;100.00
64200;BME280;50516;52.272;5.136;2024-01-30T08:36:52;102472.88;;;10.26;100.00
64200;BME280;50516;52.272;5.136;2024-01-30T08:39:17;102481.06;;;10.33;100.00
64200;BME280;50516;52.272;5.136;2024-01-30T08:41:42;102469.91;;;10.28;100.00
64200;BME280;50516;52.272;5.136;2024-01-30T08:44:08;102464.38;;;10.34;100.00
64200;BME280;50516;52.272;5.136;2024-01-30T08:46:36;102469.84;;;10.34;100.00
64200;BME280;50516;52.272;5.136;2024-01-30T08:49:01;102473.66;;;10.52;100.00
64200;BME280;50516;52.272;5.136;2024-01-30T08:51:26;102485.69;;;10.51;100.00
64200;BME280;50516;52.272;5.136;2024-01-30T08:53:51;102471.03;;;10.57;100.00
64200;BME280;50516;52.272;5.136;2024-01-30T08:56:18;102477.91;;;10.48;100.00
64200;BME280;50516;52.272;5.136;2024-01-30T08:58:44;102476.72;;;10.44;100.00
64200;BME280;50516;52.272;5.136;2024-01-30T09:01:09;102478.47;;;10.38;100.00
64200;BME280;50516;52.272;5.136;2024-01-30T09:03:34;102483.13;;;10.37;100.00
64200;BME280;50516;52.272;5.136;2024-01-30T09:06:00;102477.53;;;10.44;100.00
64200;BME280;50516;52.272;5.136;2024-01-30T09:08:25;102488.03;;;10.35;100.00
64200;BME280;50516;52.272;5.136;2024-01-30T09:10:50;102482.06;;;10.38;100.00
64200;BME280;50516;52.272;5.136;2024-01-30T09:13:15;102495.00;;;10.31;100.00
64200;BME280;50516;52.272;5.136;2024-01-30T09:15:41;102477.53;;;10.44;100.00
64200;BME280;50516;52.272;5.136;2024-01-30T09:18:07;102490.59;;;10.49;100.00
64200;BME280;50516;52.272;5.136;2024-01-30T09:20:32;102493.34;;;10.49;100.00
64200;BME280;50516;52.272;5.136;2024-01-30T09:22:57;102493.38;;;10.60;100.00
64200;BME280;50516;52.272;5.136;2024-01-30T09:25:23;102497.69;;;10.56;100.00
64200;BME280;50516;52.272;5.136;2024-01-30T09:27:48;102498.97;;;10.54;100.00
64200;BME280;50516;52.272;5.136;2024-01-30T09:30:14;102491.81;;;10.53;100.00
64200;BME280;50516;52.272;5.136;2024-01-30T09:32:40;102500.28;;;10.51;100.00
64200;BME280;50516;52.272;5.136;2024-01-30T09:35:05;102494.47;;;10.59;100.00
64200;BME280;50516;52.272;5.136;2024-01-30T09:37:31;102492.09;;;10.63;100.00
64200;BME280;50516;52.272;5.136;2024-01-30T09:39:56;102501.75;;;10.66;100.00
64200;BME280;50516;52.272;5.136;2024-01-30T09:42:33;102503.34;;;10.73;100.00
64200;BME280;50516;52.272;5.136;2024-01-30T09:44:59;102500.47;;;10.68;100.00
64200;BME280;50516;52.272;5.136;2024-01-30T09:47:24;102500.94;;;10.65;100.00
64200;BME280;50516;52.272;5.136;2024-01-30T09:49:51;102505.59;;;10.65;100.00
64200;BME280;50516;52.272;5.136;2024-01-30T09:52:16;102510.84;;;10.66;100.00
64200;BME280;50516;52.272;5.136;2024-01-30T09:54:41;102513.75;;;10.71;100.00
64200;BME280;50516;52.272;5.136;2024-01-30T09:57:07;102509.06;;;10.72;100.00
64200;BME280;50516;52.272;5.136;2024-01-30T09:59:33;102515.69;;;10.83;100.00
64200;BME280;50516;52.272;5.136;2024-01-30T10:01:58;102513.59;;;10.96;100.00
64200;BME280;50516;52.272;5.136;2024-01-30T10:04:23;102515.44;;;11.14;100.00
64200;BME280;50516;52.272;5.136;2024-01-30T10:06:49;102515.44;;;11.14;100.00
64200;BME280;50516;52.272;5.136;2024-01-30T10:09:15;102511.94;;;11.07;100.00
64200;BME280;50516;52.272;5.136;2024-01-30T10:11:41;102526.63;;;11.01;100.00
64200;BME280;50516;52.272;5.136;2024-01-30T10:14:06;102527.94;;;10.99;100.00
64200;BME280;50516;52.272;5.136;2024-01-30T10:16:31;102527.25;;;11.03;100.00
64200;BME280;50516;52.272;5.136;2024-01-30T10:18:56;102519.84;;;11.15;100.00
64200;BME280;50516;52.272;5.136;2024-01-30T10:21:22;102514.88;;;11.24;100.00
64200;BME280;50516;52.272;5.136;2024-01-30T10:23:49;102523.59;;;11.21;100.00
64200;BME280;50516;52.272;5.136;2024-01-30T10:26:16;102525.81;;;11.12;100.00
64200;BME280;50516;52.272;5.136;2024-01-30T10:28:42;102530.25;;;11.13;99.27
64200;BME280;50516;52.272;5.136;2024-01-30T10:31:07;102533.25;;;11.12;99.03
64200;BME280;50516;52.272;5.136;2024-01-30T10:33:33;102526.56;;;11.20;99.10
64200;BME280;50516;52.272;5.136;2024-01-30T10:36:03;102530.03;;;11.27;98.15
64200;BME280;50516;52.272;5.136;2024-01-30T10:38:30;102538.81;;;11.36;97.84
64200;BME280;50516;52.272;5.136;2024-01-30T10:41:00;102533.06;;;11.37;96.82
64200;BME280;50516;52.272;5.136;2024-01-30T10:43:34;102536.41;;;11.39;97.03
64200;BME280;50516;52.272;5.136;2024-01-30T10:46:07;102543.09;;;11.31;97.33
64200;BME280;50516;52.272;5.136;2024-01-30T10:48:36;102558.75;;;11.31;96.51
64200;BME280;50516;52.272;5.136;2024-01-30T10:51:02;102556.38;;;11.46;97.02
64200;BME280;50516;52.272;5.136;2024-01-30T10:53:30;102547.53;;;11.44;96.31
64200;BME280;50516;52.272;5.136;2024-01-30T10:55:57;102553.44;;;11.60;95.81
64200;BME280;50516;52.272;5.136;2024-01-30T10:58:24;102563.81;;;11.58;95.61
64200;BME280;50516;52.272;5.136;2024-01-30T11:00:50;102567.66;;;11.57;95.86
64200;BME280;50516;52.272;5.136;2024-01-30T11:03:16;102556.63;;;11.45;95.31
64200;BME280;50516;52.272;5.136;2024-01-30T11:05:42;102578.25;;;11.29;95.43
64200;BME280;50516;52.272;5.136;2024-01-30T11:08:14;102575.75;;;11.40;95.69
64200;BME280;50516;52.272;5.136;2024-01-30T11:10:48;102567.44;;;11.16;95.24
64200;BME280;50516;52.272;5.136;2024-01-30T11:13:15;102569.97;;;10.87;95.25
64200;BME280;50516;52.272;5.136;2024-01-30T11:15:41;102565.34;;;10.69;95.52
64200;BME280;50516;52.272;5.136;2024-01-30T11:18:06;102579.69;;;10.53;96.70
64200;BME280;50516;52.272;5.136;2024-01-30T11:20:32;102571.50;;;10.46;96.41
64200;BME280;50516;52.272;5.136;2024-01-30T11:22:59;102576.94;;;10.53;97.15
64200;BME280;50516;52.272;5.136;2024-01-30T11:25:25;102578.09;;;10.45;96.78
64200;BME280;50516;52.272;5.136;2024-01-30T11:27:53;102591.97;;;10.50;97.03
64200;BME280;50516;52.272;5.136;2024-01-30T11:33:11;102569.31;;;10.36;96.33
64200;BME280;50516;52.272;5.136;2024-01-30T11:35:41;102566.72;;;10.41;97.20
64200;BME280;50516;52.272;5.136;2024-01-30T11:38:11;102583.44;;;10.40;97.79
64200;BME280;50516;52.272;5.136;2024-01-30T11:40:38;102575.19;;;10.40;98.16
64200;BME280;50516;52.272;5.136;2024-01-30T11:43:06;102590.38;;;10.43;97.80
64200;BME280;50516;52.272;5.136;2024-01-30T11:45:32;102592.06;;;10.44;98.00
64200;BME280;50516;52.272;5.136;2024-01-30T11:47:58;102592.66;;;10.46;97.88
64200;BME280;50516;52.272;5.136;2024-01-30T11:50:29;102591.72;;;10.33;97.75
64200;BME280;50516;52.272;5.136;2024-01-30T11:52:55;102598.13;;;10.27;98.40
64200;BME280;50516;52.272;5.136;2024-01-30T11:55:23;102595.59;;;10.26;98.40
64200;BME280;50516;52.272;5.136;2024-01-30T11:57:49;102584.66;;;10.19;97.94
64200;BME280;50516;52.272;5.136;2024-01-30T12:00:18;102599.53;;;10.11;98.08
64200;BME280;50516;52.272;5.136;2024-01-30T12:02:49;102597.47;;;10.07;97.96
64200;BME280;50516;52.272;5.136;2024-01-30T12:05:14;102602.16;;;9.99;98.60
64200;BME280;50516;52.272;5.136;2024-01-30T12:07:40;102593.94;;;9.99;98.60
64200;BME280;50516;52.272;5.136;2024-01-30T12:10:05;102607.28;;;9.96;99.14
64200;BME280;50516;52.272;5.136;2024-01-30T12:12:32;102599.69;;;10.16;98.67
64200;BME280;50516;52.272;5.136;2024-01-30T12:14:58;102599.31;;;10.31;98.39
64200;BME280;50516;52.272;5.136;2024-01-30T12:17:33;102599.06;;;10.39;97.24
64200;BME280;50516;52.272;5.136;2024-01-30T12:20:19;102599.97;;;10.52;96.50
64200;BME280;50516;52.272;5.136;2024-01-30T12:22:47;102599.38;;;10.50;96.94
64200;BME280;50516;52.272;5.136;2024-01-30T12:25:17;102602.13;;;10.50;95.96
64200;BME280;50516;52.272;5.136;2024-01-30T12:27:44;102610.06;;;10.58;96.13
64200;BME280;50516;52.272;5.136;2024-01-30T12:30:11;102607.91;;;10.60;95.53
64200;BME280;50516;52.272;5.136;2024-01-30T12:32:39;102600.44;;;10.49;95.58
64200;BME280;50516;52.272;5.136;2024-01-30T12:35:13;102610.97;;;10.52;95.39
64200;BME280;50516;52.272;5.136;2024-01-30T12:37:40;102614.03;;;10.44;95.67
64200;BME280;50516;52.272;5.136;2024-01-30T12:40:07;102611.03;;;10.45;95.84
64200;BME280;50516;52.272;5.136;2024-01-30T12:42:32;102621.16;;;10.45;96.19
64200;BME280;50516;52.272;5.136;2024-01-30T12:44:58;102623.75;;;10.39;96.68